Terminal Aerodrome Forecast
Issued by NWS

Home | Current Version | Previous Version | Text Only | Print | Product List | Glossary On
Versions: 1 2 3 4 5 6 7 8 9 10 11 12 13 14 15 16 17
000
FTUS44 KCRP 302300
TAFALI
TAF
KALI 302320Z 3100/3124 12013KT P6SM SCT035 BKN150
     FM310800 VRB05KT P6SM SCT025 BKN060
      TEMPO 3110/3114 BKN020
     FM311600 15011KT P6SM VCSH SCT035 BKN060 PROB30 3118/3122 5SM
      TSRA BR BKN025CB=

USA.gov is the U.S. government's official web portal to all federal, state and local government web resources and services.